Time;durP1;ratioP1;P1;durP2;ratioP2;P2;SDS_P1;SDS_P2;PMS_P1;PMS_P2;Temp;Humidity;BMP_temperature;BMP_pressure;BME280_temperature;BME280_humidity;BME280_pressure;Samples;Min_cycle;Max_cycle;Signal;HPM_P1;HPM_P2
2021/10/28 00:12:15;;;;;;;19.73;14.60;;;10.60;92.50;;;;;;5008054;28;20049;-73
2021/10/28 00:14:43;;;;;;;18.20;14.23;;;10.60;92.50;;;;;;5001816;28;20045;-76
2021/10/28 00:17:11;;;;;;;20.48;14.25;;;10.60;92.50;;;;;;5011518;28;20510;-75
2021/10/28 00:19:38;;;;;;;18.70;13.82;;;10.60;92.40;;;;;;5007347;28;20049;-74
2021/10/28 00:22:06;;;;;;;21.52;14.98;;;10.50;92.50;;;;;;5014744;28;20115;-74
2021/10/28 00:24:32;;;;;;;20.95;14.02;;;10.50;92.50;;;;;;5011777;28;20034;-73
2021/10/28 00:26:58;;;;;;;23.75;16.50;;;10.40;92.60;;;;;;5004102;28;20030;-74
2021/10/28 00:29:26;;;;;;;21.45;14.63;;;10.40;92.60;;;;;;5016713;28;20042;-78
2021/10/28 00:31:52;;;;;;;23.67;16.17;;;10.40;92.60;;;;;;5009483;28;20041;-74
2021/10/28 00:34:18;;;;;;;23.48;16.00;;;10.40;92.70;;;;;;5024043;28;20045;-78
2021/10/28 00:36:46;;;;;;;21.88;16.08;;;10.40;92.60;;;;;;5008244;28;20042;-73
2021/10/28 00:39:12;;;;;;;24.17;15.63;;;10.30;92.60;;;;;;5008819;28;20544;-75
2021/10/28 00:41:38;;;;;;;22.77;15.32;;;10.20;92.60;;;;;;5024294;28;20478;-74
2021/10/28 00:44:07;;;;;;;20.40;15.05;;;10.20;92.60;;;;;;5012729;28;20049;-73
2021/10/28 00:46:35;;;;;;;19.65;14.85;;;10.20;92.70;;;;;;5023023;28;20042;-73
2021/10/28 00:49:02;;;;;;;20.35;15.00;;;10.20;92.70;;;;;;5004364;28;20404;-82
2021/10/28 00:51:29;;;;;;;20.83;14.38;;;10.20;92.70;;;;;;5010757;28;20498;-76
2021/10/28 00:53:57;;;;;;;21.02;14.98;;;10.10;92.70;;;;;;5002647;28;20038;-74
2021/10/28 00:56:25;;;;;;;22.27;15.02;;;10.10;92.70;;;;;;5004491;28;20036;-75
2021/10/28 00:58:51;;;;;;;19.23;15.10;;;10.10;92.80;;;;;;5012717;28;20062;-73
2021/10/28 01:01:17;;;;;;;23.02;16.58;;;10.10;92.80;;;;;;5008126;28;20389;-73
2021/10/28 01:03:44;;;;;;;28.80;17.23;;;10.10;92.90;;;;;;5012599;28;20083;-73
2021/10/28 01:06:10;;;;;;;22.40;16.08;;;10.10;93.00;;;;;;5016585;28;20460;-73
2021/10/28 01:08:38;;;;;;;23.00;16.23;;;10.20;93.00;;;;;;5020060;28;20092;-72
2021/10/28 01:11:07;;;;;;;28.90;16.98;;;10.20;93.00;;;;;;5018267;28;20042;-74
2021/10/28 01:13:34;;;;;;;22.48;15.68;;;10.30;93.20;;;;;;5009858;28;20033;-73
2021/10/28 01:16:01;;;;;;;21.67;15.82;;;10.30;93.20;;;;;;5012284;28;20037;-73
2021/10/28 01:18:28;;;;;;;28.98;16.70;;;10.30;93.20;;;;;;5023089;28;20523;-73
2021/10/28 01:20:55;;;;;;;22.20;15.77;;;10.30;93.20;;;;;;5007568;28;20125;-73
2021/10/28 01:23:23;;;;;;;24.88;15.95;;;10.40;93.20;;;;;;5006298;28;20087;-76
2021/10/28 01:26:13;;;;;;;22.65;15.57;;;10.40;93.10;;;;;;5007219;28;20056;-73
2021/10/28 01:28:55;;;;;;;20.27;15.18;;;10.30;93.10;;;;;;5015606;28;20026;-73
2021/10/28 01:31:23;;;;;;;21.15;14.85;;;10.30;93.00;;;;;;5007132;28;20042;-73
2021/10/28 01:33:50;;;;;;;23.77;14.68;;;10.30;93.00;;;;;;5031785;28;20366;-73
2021/10/28 01:36:17;;;;;;;19.08;13.63;;;10.30;93.10;;;;;;5012243;28;20084;-73
2021/10/28 01:38:43;;;;;;;21.50;14.25;;;10.20;93.10;;;;;;5011909;28;20034;-73
2021/10/28 01:41:10;;;;;;;21.00;14.02;;;10.20;93.10;;;;;;5010903;28;20117;-73
2021/10/28 01:43:36;;;;;;;18.27;13.13;;;10.20;93.10;;;;;;5012329;28;20428;-73
2021/10/28 01:46:02;;;;;;;19.65;13.85;;;10.20;93.20;;;;;;5010920;28;20108;-74
2021/10/28 01:48:28;;;;;;;19.58;13.63;;;10.20;93.10;;;;;;5012937;28;20029;-74
2021/10/28 01:50:55;;;;;;;20.00;12.88;;;10.20;93.20;;;;;;5011705;28;20480;-73
2021/10/28 01:53:21;;;;;;;20.35;14.07;;;10.20;93.20;;;;;;5008920;28;25543;-74
2021/10/28 01:55:47;;;;;;;20.98;13.80;;;10.20;93.30;;;;;;5012727;28;20473;-76
2021/10/28 01:58:16;;;;;;;17.17;12.77;;;10.20;93.10;;;;;;5018713;28;20507;-74
2021/10/28 02:00:43;;;;;;;19.73;13.32;;;10.20;93.20;;;;;;5015899;28;21038;-74
2021/10/28 02:03:09;;;;;;;20.63;13.75;;;10.20;93.10;;;;;;5011227;28;20034;-76
2021/10/28 02:05:36;;;;;;;21.77;13.70;;;10.20;93.10;;;;;;5013448;28;20038;-77
2021/10/28 02:08:03;;;;;;;19.98;13.48;;;10.20;93.10;;;;;;5014905;28;20029;-76
2021/10/28 02:10:28;;;;;;;20.15;14.10;;;10.20;93.10;;;;;;5013686;28;20025;-73
2021/10/28 02:12:56;;;;;;;20.23;13.00;;;10.20;93.10;;;;;;5015939;28;20444;-72
2021/10/28 02:15:23;;;;;;;20.67;13.88;;;10.20;93.10;;;;;;5011921;28;20033;-72
2021/10/28 02:17:49;;;;;;;17.67;12.80;;;10.20;93.00;;;;;;5011903;28;20053;-73
2021/10/28 02:20:16;;;;;;;19.15;13.80;;;10.10;93.00;;;;;;5010583;28;20046;-72
2021/10/28 02:22:43;;;;;;;17.00;12.77;;;10.10;93.10;;;;;;5011963;28;20065;-72
2021/10/28 02:25:11;;;;;;;19.88;12.70;;;10.10;93.00;;;;;;5008416;28;20513;-73
2021/10/28 02:27:37;;;;;;;18.80;12.75;;;10.10;93.10;;;;;;5012724;28;20105;-73
2021/10/28 02:30:04;;;;;;;18.75;12.68;;;10.10;93.00;;;;;;5015285;28;20026;-73
2021/10/28 02:32:30;;;;;;;15.30;12.07;;;10.10;93.00;;;;;;5009163;28;20042;-73
2021/10/28 02:34:55;;;;;;;18.88;11.63;;;10.00;93.00;;;;;;5010599;28;20347;-76
2021/10/28 02:37:22;;;;;;;19.67;12.77;;;9.90;93.00;;;;;;5011512;28;20061;-74
2021/10/28 02:39:48;;;;;;;17.30;12.63;;;9.90;93.10;;;;;;5013336;28;20034;-73
2021/10/28 02:42:14;;;;;;;16.98;12.40;;;9.90;93.10;;;;;;5011138;28;20061;-76
2021/10/28 02:44:41;;;;;;;20.58;12.82;;;9.90;93.10;;;;;;5009564;28;20026;-75
2021/10/28 02:47:06;;;;;;;18.77;12.82;;;9.90;93.10;;;;;;5009071;28;20037;-73
2021/10/28 02:49:32;;;;;;;15.95;12.23;;;9.90;93.10;;;;;;5004263;28;20026;-73
2021/10/28 02:51:58;;;;;;;22.30;14.02;;;9.90;93.10;;;;;;5009787;28;20061;-73
2021/10/28 02:54:24;;;;;;;19.30;12.45;;;9.90;93.10;;;;;;4998117;28;20030;-73
2021/10/28 02:56:50;;;;;;;15.95;11.95;;;9.90;93.20;;;;;;5005368;28;20410;-74
2021/10/28 02:59:16;;;;;;;20.02;12.52;;;9.90;93.20;;;;;;5012029;28;20026;-76
2021/10/28 03:01:45;;;;;;;18.48;12.50;;;9.90;93.10;;;;;;5010922;28;20184;-84
2021/10/28 03:04:12;;;;;;;20.13;13.30;;;9.80;93.10;;;;;;5016248;28;20380;-76
2021/10/28 03:06:39;;;;;;;17.88;12.02;;;9.90;93.20;;;;;;5009689;28;20068;-72
2021/10/28 03:09:11;;;;;;;17.17;11.48;;;9.80;93.10;;;;;;5009133;28;20058;-74
2021/10/28 03:11:38;;;;;;;17.20;11.68;;;9.80;93.10;;;;;;5014845;28;20539;-73
2021/10/28 03:14:04;;;;;;;17.58;11.88;;;9.70;93.10;;;;;;5026740;28;20391;-73
2021/10/28 03:27:24;;;;;;;17.58;11.63;;;9.60;93.20;;;;;;5010008;28;20033;-81
2021/10/28 03:29:50;;;;;;;17.15;12.15;;;9.70;93.20;;;;;;5013862;28;20425;-75
2021/10/28 03:32:18;;;;;;;17.15;12.02;;;9.60;93.20;;;;;;5011049;28;20045;-73
2021/10/28 03:34:45;;;;;;;21.17;12.43;;;9.60;93.20;;;;;;5015802;28;20044;-72
2021/10/28 03:37:19;;;;;;;17.08;12.35;;;9.60;93.10;;;;;;5009901;28;20103;-73
2021/10/28 04:30:55;;;;;;;21.30;13.98;;;9.60;93.40;;;;;;5007983;28;20593;-74
2021/10/28 04:33:21;;;;;;;21.00;14.30;;;9.70;93.50;;;;;;5009075;28;20038;-74
2021/10/28 04:35:47;;;;;;;20.80;13.50;;;9.70;93.50;;;;;;5008207;28;20052;-78
2021/10/28 04:38:12;;;;;;;23.15;13.70;;;9.80;93.50;;;;;;5024310;28;20049;-73
2021/10/28 04:40:39;;;;;;;21.60;13.23;;;9.80;93.40;;;;;;5007472;28;20041;-73
2021/10/28 04:43:04;;;;;;;20.00;13.30;;;9.80;93.30;;;;;;5007875;28;20045;-74
2021/10/28 04:45:30;;;;;;;20.85;13.55;;;9.80;93.10;;;;;;5009700;28;20030;-75
2021/10/28 04:47:56;;;;;;;20.00;13.57;;;9.90;93.10;;;;;;5008283;28;20097;-73
2021/10/28 04:50:21;;;;;;;21.00;13.68;;;9.90;92.90;;;;;;5011072;28;20042;-72
2021/10/28 04:52:47;;;;;;;20.90;14.38;;;9.90;92.80;;;;;;5010702;28;20112;-72
2021/10/28 04:55:13;;;;;;;19.42;12.73;;;9.80;92.80;;;;;;5015390;28;20116;-72
2021/10/28 04:57:38;;;;;;;20.20;13.75;;;9.80;92.70;;;;;;5010129;28;20092;-73
2021/10/28 05:00:05;;;;;;;19.63;13.88;;;9.80;92.80;;;;;;5018895;28;20365;-72
2021/10/28 05:02:32;;;;;;;18.88;12.93;;;9.70;92.80;;;;;;5008696;28;20041;-75
2021/10/28 05:04:57;;;;;;;21.58;14.40;;;9.70;92.80;;;;;;5010897;28;20064;-73
2021/10/28 05:07:23;;;;;;;21.52;13.55;;;9.60;92.90;;;;;;5008182;28;20034;-75
2021/10/28 05:09:49;;;;;;;20.00;14.88;;;9.70;92.80;;;;;;5006894;28;20046;-72
2021/10/28 05:12:14;;;;;;;20.38;13.95;;;9.60;92.80;;;;;;5007671;28;20041;-76
2021/10/28 05:14:40;;;;;;;20.95;13.85;;;9.60;92.80;;;;;;5017746;28;20026;-73
2021/10/28 05:17:06;;;;;;;18.75;12.27;;;9.60;92.80;;;;;;5015327;28;20026;-77
2021/10/28 05:19:37;;;;;;;19.17;13.25;;;9.60;92.80;;;;;;5010098;28;20100;-77
2021/10/28 05:22:04;;;;;;;16.63;12.18;;;9.50;92.80;;;;;;5012905;28;20380;-75
2021/10/28 05:24:30;;;;;;;17.05;12.77;;;9.50;92.90;;;;;;5006590;28;20084;-73
2021/10/28 05:26:55;;;;;;;19.45;12.35;;;9.50;92.90;;;;;;5011455;28;20038;-77
2021/10/28 05:29:21;;;;;;;18.48;12.98;;;9.40;92.90;;;;;;5013085;28;20030;-76
2021/10/28 05:31:47;;;;;;;21.50;13.48;;;9.30;92.90;;;;;;5011422;28;20049;-72
2021/10/28 05:34:13;;;;;;;18.88;13.07;;;9.30;92.90;;;;;;5015144;28;20034;-72
2021/10/28 05:36:39;;;;;;;19.85;13.05;;;9.30;92.90;;;;;;5013465;28;20025;-74
2021/10/28 05:39:05;;;;;;;14.80;11.20;;;9.30;92.90;;;;;;5010071;28;20354;-74
2021/10/28 05:41:31;;;;;;;16.38;12.60;;;9.30;92.90;;;;;;5010617;28;20042;-72
2021/10/28 05:43:58;;;;;;;17.83;12.52;;;9.20;92.90;;;;;;5013691;28;20049;-71
2021/10/28 05:46:23;;;;;;;18.60;12.98;;;9.20;92.90;;;;;;5011270;28;20096;-72
2021/10/28 05:48:49;;;;;;;18.80;12.63;;;9.20;92.90;;;;;;5012980;28;20059;-69
2021/10/28 05:51:16;;;;;;;19.85;13.65;;;9.20;93.00;;;;;;5007386;28;20034;-71
2021/10/28 05:53:41;;;;;;;19.42;14.00;;;9.20;92.90;;;;;;5010172;28;20499;-71
2021/10/28 05:56:07;;;;;;;20.25;14.07;;;9.20;93.00;;;;;;5010253;28;20034;-72
2021/10/28 05:58:33;;;;;;;18.58;14.32;;;9.20;92.90;;;;;;5014611;28;20156;-69
2021/10/28 06:01:01;;;;;;;20.10;13.57;;;9.20;92.90;;;;;;5014026;28;20459;-74
2021/10/28 06:03:31;;;;;;;18.30;12.80;;;9.20;92.90;;;;;;5007023;28;20039;-70
2021/10/28 06:05:57;;;;;;;19.00;12.80;;;9.10;92.90;;;;;;5002854;28;20038;-72
2021/10/28 06:08:23;;;;;;;21.73;13.57;;;9.20;92.90;;;;;;5011369;28;20080;-70
2021/10/28 06:10:49;;;;;;;20.05;13.43;;;9.10;92.90;;;;;;5010916;28;20113;-69
2021/10/28 06:13:14;;;;;;;17.17;12.15;;;9.10;92.90;;;;;;5012518;28;20117;-71
2021/10/28 06:15:40;;;;;;;19.60;13.68;;;9.10;92.90;;;;;;5006023;28;20084;-76
2021/10/28 06:20:38;;;;;;;20.08;14.85;;;9.10;93.00;;;;;;5011098;28;20034;-69
2021/10/28 06:23:04;;;;;;;21.02;15.07;;;9.10;93.00;;;;;;5009285;28;20046;-69
2021/10/28 06:25:30;;;;;;;23.52;15.73;;;9.10;93.10;;;;;;5016569;28;20041;-70
2021/10/28 06:27:56;;;;;;;22.33;15.48;;;9.10;93.10;;;;;;5008702;28;20507;-71
2021/10/28 06:30:22;;;;;;;25.45;15.88;;;9.20;93.10;;;;;;5009782;28;20390;-69
2021/10/28 06:32:53;;;;;;;20.77;14.95;;;9.20;93.10;;;;;;5011891;28;20041;-70
2021/10/28 06:35:21;;;;;;;22.05;15.38;;;9.20;93.10;;;;;;5010449;28;20030;-69
2021/10/28 06:37:48;;;;;;;21.05;14.90;;;9.20;93.10;;;;;;5007689;28;20128;-69
2021/10/28 06:40:17;;;;;;;23.55;15.35;;;9.30;93.10;;;;;;5008481;28;20038;-71
2021/10/28 06:42:43;;;;;;;27.42;16.67;;;9.20;93.00;;;;;;5001771;28;20486;-73
2021/10/28 06:45:10;;;;;;;23.98;15.63;;;9.20;93.10;;;;;;5014674;28;20036;-69
2021/10/28 06:47:36;;;;;;;22.27;16.25;;;9.20;93.10;;;;;;5008247;28;20041;-70
2021/10/28 06:50:07;;;;;;;23.75;16.80;;;9.30;93.20;;;;;;5009398;28;20037;-70
2021/10/28 06:52:58;;;;;;;27.23;18.00;;;9.40;93.10;;;;;;5012845;28;20041;-69
2021/10/28 06:55:33;;;;;;;25.58;17.55;;;9.40;93.10;;;;;;5008621;28;20041;-76
2021/10/28 07:03:28;;;;;;;29.73;18.52;;;9.60;93.00;;;;;;5007344;28;20284;-69
2021/10/28 07:05:58;;;;;;;23.25;17.00;;;9.60;92.90;;;;;;5007276;28;20370;-72
2021/10/28 07:08:24;;;;;;;27.40;18.63;;;9.60;92.80;;;;;;5008766;28;20037;-71
2021/10/28 07:10:52;;;;;;;28.63;19.70;;;9.70;92.70;;;;;;5009288;28;20397;-69
2021/10/28 07:13:22;;;;;;;25.90;18.88;;;9.70;92.60;;;;;;5006907;28;20516;-76
2021/10/28 07:16:04;;;;;;;27.40;18.60;;;9.80;92.60;;;;;;5012668;28;20072;-70
2021/10/28 07:30:07;;;;;;;25.25;17.70;;;10.00;92.10;;;;;;5016230;28;20119;-69
2021/10/28 07:38:25;;;;;;;23.60;17.17;;;10.10;91.70;;;;;;5010457;28;20554;-70
2021/10/28 08:18:13;;;;;;;22.63;17.30;;;11.10;88.70;;;;;;5007206;28;20092;-71
2021/10/28 08:23:26;;;;;;;22.50;17.33;;;11.30;87.80;;;;;;5009836;28;20129;-69
2021/10/28 08:28:46;;;;;;;;;;;11.60;87.10;;;;;;5011153;28;20041;-69
2021/10/28 08:31:15;;;;;;;22.08;14.85;;;11.90;85.90;;;;;;5007921;28;19919;-71
2021/10/28 08:33:41;;;;;;;22.05;16.83;;;12.10;85.30;;;;;;5015039;28;20026;-70
2021/10/28 08:36:11;;;;;;;18.35;15.40;;;12.20;84.90;;;;;;5005857;28;20045;-70
2021/10/28 08:38:38;;;;;;;21.23;16.10;;;12.40;84.80;;;;;;5024472;28;20026;-70
2021/10/28 08:41:10;;;;;;;18.63;14.52;;;12.50;83.90;;;;;;5006227;28;20034;-69
2021/10/28 08:43:41;;;;;;;20.45;14.90;;;12.60;83.50;;;;;;5011675;28;20026;-70
2021/10/28 08:46:08;;;;;;;18.50;14.93;;;12.80;83.00;;;;;;5006246;28;20512;-76
2021/10/28 08:48:38;;;;;;;20.08;15.38;;;13.00;82.60;;;;;;5010222;28;20038;-70
2021/10/28 08:51:08;;;;;;;22.00;15.52;;;13.10;81.60;;;;;;5007785;28;20538;-69
2021/10/28 08:54:44;;;;;;;22.85;15.43;;;13.10;81.40;;;;;;5013902;28;20104;-69
2021/10/28 09:25:05;;;;;;;20.23;15.48;;;14.00;79.00;;;;;;5003067;28;20037;-70
2021/10/28 09:27:46;;;;;;;20.33;14.55;;;14.00;78.70;;;;;;5002383;28;20034;-71
2021/10/28 09:30:21;;;;;;;22.15;15.23;;;14.10;79.00;;;;;;5012615;28;20038;-71
2021/10/28 09:32:54;;;;;;;23.02;15.00;;;14.10;79.00;;;;;;5008093;28;20030;-71
2021/10/28 09:35:51;;;;;;;19.95;14.38;;;14.20;78.80;;;;;;5005725;28;20046;-75
2021/10/28 09:44:19;;;;;;;20.55;13.80;;;14.60;78.00;;;;;;5003389;28;20397;-69
2021/10/28 09:51:47;;;;;;;17.90;13.30;;;14.80;77.40;;;;;;5005941;28;20045;-70
2021/10/28 09:59:34;;;;;;;17.75;12.23;;;15.20;76.20;;;;;;5008114;28;20037;-71
2021/10/28 10:02:20;;;;;;;19.85;12.25;;;15.10;74.20;;;;;;5005609;28;20050;-70
2021/10/28 10:04:47;;;;;;;17.30;11.60;;;15.20;73.50;;;;;;5016938;28;20044;-70
2021/10/28 10:07:16;;;;;;;15.07;12.13;;;15.20;73.80;;;;;;5024017;28;20474;-72
2021/10/28 10:09:42;;;;;;;18.40;13.30;;;15.10;73.90;;;;;;5010222;28;20637;-70
2021/10/28 10:12:09;;;;;;;17.63;11.95;;;15.10;74.00;;;;;;5023951;28;20034;-76
2021/10/28 10:14:36;;;;;;;17.85;11.75;;;15.10;74.50;;;;;;5018356;28;20034;-69
2021/10/28 10:17:03;;;;;;;15.82;11.40;;;15.10;74.50;;;;;;5012420;28;20030;-70
2021/10/28 10:19:43;;;;;;;14.48;10.90;;;15.20;74.00;;;;;;5029527;28;20404;-69
2021/10/28 11:21:56;;;;;;;14.00;9.90;;;16.40;71.50;;;;;;5008451;28;20037;-75
2021/10/28 11:25:40;;;;;;;15.30;10.25;;;16.50;72.00;;;;;;5003721;28;20034;-69
2021/10/28 11:27:33;;;;;;;12.57;8.35;;;16.50;71.50;;;;;;5012268;28;20489;-69
2021/10/28 11:33:13;;;;;;;13.98;8.68;;;16.60;70.30;;;;;;5011284;28;20055;-70
2021/10/28 12:16:27;;;;;;;;;;;17.00;69.40;;;;;;5009110;28;20049;-71
2021/10/28 12:45:57;;;;;;;10.13;6.60;;;17.00;70.20;;;;;;5006290;28;20045;-70
2021/10/28 13:02:49;;;;;;;;;;;17.00;69.50;;;;;;5005222;28;20061;-69
2021/10/28 13:06:04;;;;;;;9.95;5.90;;;17.00;69.40;;;;;;5010332;28;19917;-70
2021/10/28 13:47:58;;;;;;;9.98;6.00;;;16.90;69.50;;;;;;5011685;28;20041;-70
2021/10/28 13:57:31;;;;;;;10.52;5.75;;;16.80;68.00;;;;;;5008585;28;20030;-68
2021/10/28 15:34:57;;;;;;;9.93;5.70;;;16.10;73.30;;;;;;5010136;28;20069;-69
2021/10/28 15:40:20;;;;;;;9.80;5.88;;;16.00;73.60;;;;;;5008886;28;20053;-68
2021/10/28 16:21:50;;;;;;;13.10;5.80;;;15.40;75.40;;;;;;4993274;28;20060;-72
2021/10/28 16:23:13;;;;;;;12.05;7.40;;;15.10;76.80;;;;;;4991514;28;20099;-75
2021/10/28 16:25:39;;;;;;;11.13;7.40;;;15.00;76.90;;;;;;4991779;28;20472;-75
2021/10/28 16:28:05;;;;;;;12.10;7.32;;;15.00;77.00;;;;;;4996121;28;20818;-72
2021/10/28 16:30:31;;;;;;;10.40;7.63;;;14.90;77.30;;;;;;4992801;28;20084;-75
2021/10/28 16:32:56;;;;;;;10.60;7.28;;;14.80;77.60;;;;;;4994562;28;20113;-74
2021/10/28 16:35:22;;;;;;;11.88;7.75;;;14.80;77.90;;;;;;4992423;28;20045;-72
2021/10/28 16:37:50;;;;;;;15.15;8.32;;;14.70;78.20;;;;;;4989959;28;20026;-76
2021/10/28 16:40:16;;;;;;;12.32;8.20;;;14.70;78.50;;;;;;4991529;28;20338;-74
2021/10/28 16:42:41;;;;;;;12.43;8.65;;;14.60;78.50;;;;;;4991509;28;20887;-71
2021/10/28 16:45:08;;;;;;;13.18;8.50;;;14.60;78.70;;;;;;4989895;28;20469;-74
2021/10/28 16:47:36;;;;;;;11.45;8.65;;;14.60;79.10;;;;;;4991649;28;20041;-75
2021/10/28 16:50:03;;;;;;;13.15;8.35;;;14.50;79.40;;;;;;4991752;28;20227;-75
2021/10/28 16:52:28;;;;;;;14.55;8.75;;;14.40;79.30;;;;;;4988214;28;20173;-72
2021/10/28 16:54:54;;;;;;;11.98;8.52;;;14.40;79.70;;;;;;4994068;28;20786;-75
2021/10/28 16:57:20;;;;;;;13.68;8.60;;;14.40;79.60;;;;;;4991830;28;20026;-73
2021/10/28 16:59:46;;;;;;;12.45;9.07;;;14.40;79.50;;;;;;4993751;28;20462;-76
2021/10/28 17:02:13;;;;;;;13.90;9.00;;;14.40;79.70;;;;;;4993656;28;20054;-71
2021/10/28 17:04:38;;;;;;;18.70;9.73;;;14.30;79.70;;;;;;4993736;28;20022;-74
2021/10/28 17:07:04;;;;;;;11.82;8.38;;;14.30;79.80;;;;;;4987780;28;20042;-73
2021/10/28 17:09:30;;;;;;;15.98;9.02;;;14.30;79.90;;;;;;4989015;28;20663;-72
2021/10/28 17:11:55;;;;;;;14.27;8.80;;;14.20;80.10;;;;;;4992239;28;20040;-74
2021/10/28 17:14:21;;;;;;;14.45;10.25;;;14.30;79.80;;;;;;4989215;28;20199;-74
2021/10/28 17:16:47;;;;;;;14.90;9.38;;;14.30;79.80;;;;;;4990086;28;20287;-72
2021/10/28 17:19:15;;;;;;;14.15;9.40;;;14.20;79.80;;;;;;4989643;28;20130;-68
2021/10/28 17:21:42;;;;;;;12.98;9.13;;;14.20;79.60;;;;;;4989893;28;20046;-77
2021/10/28 17:24:19;;;;;;;12.30;9.02;;;14.20;79.70;;;;;;4986497;28;20022;-73
2021/10/28 17:26:45;;;;;;;15.25;9.30;;;14.10;79.90;;;;;;4986945;28;20070;-73
2021/10/28 17:29:12;;;;;;;13.18;8.45;;;14.10;79.70;;;;;;4990582;28;20046;-71
2021/10/28 17:31:38;;;;;;;13.85;9.07;;;14.10;79.60;;;;;;4990183;28;20034;-75
2021/10/28 17:34:04;;;;;;;13.48;8.98;;;14.10;79.50;;;;;;4994293;28;20475;-77
2021/10/28 17:36:31;;;;;;;13.25;8.98;;;14.10;79.50;;;;;;4991407;28;20045;-75
2021/10/28 17:38:56;;;;;;;13.15;8.25;;;14.10;79.20;;;;;;4987802;28;20095;-76
2021/10/28 17:41:23;;;;;;;14.82;9.00;;;14.10;79.10;;;;;;4989245;28;20444;-75
2021/10/28 17:43:52;;;;;;;14.95;9.38;;;14.10;79.10;;;;;;4988255;28;20434;-74
2021/10/28 17:46:19;;;;;;;20.48;11.50;;;14.10;79.30;;;;;;4988824;28;20026;-75
2021/10/28 17:48:48;;;;;;;14.13;9.52;;;14.00;79.10;;;;;;4988111;28;20239;-75
2021/10/28 17:51:14;;;;;;;17.08;10.25;;;14.00;79.00;;;;;;4990673;28;20113;-74
2021/10/28 17:53:39;;;;;;;15.05;9.27;;;13.90;79.20;;;;;;4988175;28;20145;-76
2021/10/28 17:56:05;;;;;;;14.45;8.95;;;14.00;78.80;;;;;;4991635;28;20121;-73
2021/10/28 17:58:31;;;;;;;12.65;8.55;;;14.00;78.60;;;;;;4985645;28;20030;-72
2021/10/28 18:00:57;;;;;;;14.10;8.68;;;13.90;78.40;;;;;;4992504;28;20492;-75
2021/10/28 18:03:23;;;;;;;12.27;8.23;;;13.90;78.40;;;;;;4998303;28;20105;-77
2021/10/28 18:05:53;;;;;;;15.18;8.50;;;13.90;78.20;;;;;;4985767;28;20064;-75
2021/10/28 18:08:19;;;;;;;14.93;8.93;;;14.00;78.10;;;;;;4991838;28;20030;-75
2021/10/28 18:10:45;;;;;;;16.08;9.02;;;13.90;77.90;;;;;;4990752;28;20034;-75
2021/10/28 18:13:12;;;;;;;15.63;9.48;;;13.90;77.80;;;;;;4993625;28;20018;-75
2021/10/28 18:15:42;;;;;;;11.90;8.50;;;13.90;77.80;;;;;;4991402;28;20042;-74
2021/10/28 18:18:09;;;;;;;15.38;9.35;;;13.90;77.80;;;;;;4993805;28;20054;-73
2021/10/28 18:20:36;;;;;;;13.63;8.43;;;13.90;77.80;;;;;;4989860;28;20548;-75
2021/10/28 18:23:02;;;;;;;13.57;8.43;;;13.80;78.00;;;;;;4997296;28;20038;-77
2021/10/28 18:25:28;;;;;;;13.30;9.00;;;13.80;78.10;;;;;;4995963;28;20544;-77
2021/10/28 18:27:57;;;;;;;11.27;8.00;;;13.80;78.20;;;;;;4992408;28;20076;-75
2021/10/28 18:30:26;;;;;;;15.23;9.43;;;13.80;78.00;;;;;;4992662;28;20472;-74
2021/10/28 18:32:51;;;;;;;12.38;8.80;;;13.80;78.10;;;;;;4985104;28;20046;-76
2021/10/28 18:35:17;;;;;;;16.88;9.07;;;13.70;78.30;;;;;;4999416;28;20040;-70
2021/10/28 18:37:44;;;;;;;12.05;8.52;;;13.80;78.30;;;;;;5007224;28;20473;-73
2021/10/28 18:40:12;;;;;;;13.30;9.50;;;13.60;78.40;;;;;;5016519;28;20029;-73
2021/10/28 18:42:38;;;;;;;15.20;11.55;;;13.70;78.70;;;;;;5010397;28;20122;-72
2021/10/28 18:45:06;;;;;;;17.45;10.60;;;13.60;78.60;;;;;;5009265;28;20049;-72
2021/10/28 18:47:35;;;;;;;17.73;10.45;;;13.60;78.80;;;;;;5014057;28;20033;-72
2021/10/28 18:50:04;;;;;;;13.68;10.32;;;13.60;78.80;;;;;;5011722;28;20536;-71
2021/10/28 18:52:30;;;;;;;17.05;9.43;;;13.60;78.90;;;;;;5028566;28;20042;-70
2021/10/28 18:54:56;;;;;;;14.82;8.95;;;13.60;79.00;;;;;;5009043;28;20034;-75
2021/10/28 18:57:22;;;;;;;16.70;9.68;;;13.60;78.80;;;;;;5021021;28;20048;-74
2021/10/28 18:59:48;;;;;;;15.20;9.25;;;13.60;79.00;;;;;;5007609;28;20030;-70
2021/10/28 19:02:15;;;;;;;12.32;9.25;;;13.50;79.10;;;;;;5005940;28;20068;-72
2021/10/28 19:04:41;;;;;;;17.00;9.65;;;13.50;79.20;;;;;;5004983;28;20041;-71
2021/10/28 19:07:08;;;;;;;11.98;9.13;;;13.50;79.40;;;;;;5007520;28;20065;-70
2021/10/28 19:09:34;;;;;;;13.63;9.40;;;13.50;79.30;;;;;;5008686;28;20038;-71
2021/10/28 19:12:00;;;;;;;13.00;9.55;;;13.40;79.40;;;;;;5005757;28;20041;-71
2021/10/28 19:14:27;;;;;;;15.75;9.02;;;13.40;79.40;;;;;;5004910;28;20054;-74
2021/10/28 19:16:53;;;;;;;13.38;9.00;;;13.40;79.60;;;;;;5016371;28;20046;-71
2021/10/28 19:19:18;;;;;;;16.48;10.43;;;13.40;79.50;;;;;;5024283;28;20041;-71
2021/10/28 19:21:44;;;;;;;15.52;10.10;;;13.40;79.40;;;;;;5004057;28;20504;-71
2021/10/28 19:24:10;;;;;;;14.52;9.25;;;13.30;79.50;;;;;;4998297;28;20485;-72
2021/10/28 19:26:36;;;;;;;12.40;9.07;;;13.30;79.60;;;;;;5005508;28;20048;-71
2021/10/28 19:29:05;;;;;;;15.10;9.25;;;13.30;79.60;;;;;;5004068;28;20041;-72
2021/10/28 19:31:34;;;;;;;16.52;8.82;;;13.30;79.60;;;;;;5000921;28;20041;-71
2021/10/28 19:34:02;;;;;;;12.80;8.10;;;13.30;79.40;;;;;;4999952;28;20030;-73
2021/10/28 19:36:57;;;;;;;14.45;8.48;;;13.30;79.20;;;;;;5005660;28;20121;-70
2021/10/28 19:39:29;;;;;;;17.27;8.73;;;13.40;78.80;;;;;;5000903;28;20477;-70
2021/10/28 19:42:30;;;;;;;13.38;8.77;;;13.40;79.10;;;;;;5005235;28;20046;-74
2021/10/28 19:47:27;;;;;;;13.02;8.65;;;13.20;79.40;;;;;;5005977;28;20425;-70
2021/10/28 19:49:53;;;;;;;13.20;8.95;;;13.20;79.20;;;;;;5011873;28;20473;-71
2021/10/28 19:52:19;;;;;;;14.27;8.48;;;13.10;79.60;;;;;;5007828;28;20466;-72
2021/10/28 19:54:48;;;;;;;15.80;9.38;;;13.10;79.60;;;;;;5008942;28;20049;-71
2021/10/28 19:57:19;;;;;;;13.90;8.38;;;13.10;79.80;;;;;;5004387;28;20038;-71
2021/10/28 19:59:47;;;;;;;14.15;8.90;;;13.10;79.70;;;;;;4999728;28;20036;-71
2021/10/28 20:21:24;;;;;;;13.20;8.73;;;12.90;80.50;;;;;;4997648;28;20092;-71
2021/10/28 20:23:50;;;;;;;15.13;8.68;;;13.00;80.30;;;;;;5012558;28;20041;-72
2021/10/28 20:26:20;;;;;;;12.50;8.45;;;13.00;80.20;;;;;;4997767;28;20057;-75
2021/10/28 20:28:48;;;;;;;12.00;8.20;;;12.90;80.30;;;;;;5000761;28;20875;-71
2021/10/28 20:31:19;;;;;;;11.57;8.38;;;12.80;80.80;;;;;;5010985;28;20029;-72
2021/10/28 20:34:01;;;;;;;14.75;8.52;;;12.80;80.80;;;;;;4999915;28;20057;-71
2021/10/28 20:38:56;;;;;;;14.43;8.88;;;12.80;81.00;;;;;;5000838;28;20041;-72
2021/10/28 20:41:22;;;;;;;13.63;8.52;;;12.70;81.10;;;;;;5009939;28;20091;-71
2021/10/28 20:43:47;;;;;;;11.77;7.63;;;12.70;81.20;;;;;;5018191;28;20041;-72
2021/10/28 20:46:20;;;;;;;16.77;8.63;;;12.70;81.10;;;;;;5006532;28;20109;-74
2021/10/28 20:48:47;;;;;;;13.68;7.97;;;12.70;81.20;;;;;;5002870;28;21153;-71
2021/10/28 20:51:13;;;;;;;13.00;8.20;;;12.60;81.60;;;;;;4999738;28;20132;-72
2021/10/28 20:53:39;;;;;;;12.07;8.23;;;12.70;81.60;;;;;;4999320;28;20095;-71
2021/10/28 20:56:05;;;;;;;11.45;8.02;;;12.60;81.50;;;;;;5004312;28;20455;-71
2021/10/28 20:58:31;;;;;;;16.17;8.60;;;12.60;81.50;;;;;;4997328;28;20558;-72
2021/10/28 21:00:57;;;;;;;12.10;7.43;;;12.60;81.60;;;;;;4996680;28;20045;-70
2021/10/28 21:03:22;;;;;;;13.23;7.13;;;12.60;81.50;;;;;;5012268;28;20501;-75
2021/10/28 21:05:48;;;;;;;14.00;7.47;;;12.60;81.40;;;;;;4996048;28;20489;-70
2021/10/28 21:08:14;;;;;;;12.10;7.18;;;12.60;81.60;;;;;;4994877;28;20049;-71
2021/10/28 21:10:40;;;;;;;11.93;7.05;;;12.60;81.50;;;;;;5014991;28;20465;-73
2021/10/28 21:13:05;;;;;;;12.13;7.32;;;12.60;81.60;;;;;;4996726;28;20496;-70
2021/10/28 21:15:31;;;;;;;13.90;7.05;;;12.60;81.80;;;;;;4998530;28;20398;-71
2021/10/28 21:17:58;;;;;;;14.55;8.13;;;12.60;81.80;;;;;;4995861;28;20049;-70
2021/10/28 21:20:25;;;;;;;12.63;7.72;;;12.60;81.60;;;;;;5012707;28;20038;-71
2021/10/28 21:22:55;;;;;;;12.90;7.78;;;12.60;81.60;;;;;;4997487;28;20132;-71
2021/10/28 21:25:22;;;;;;;11.73;7.65;;;12.60;81.50;;;;;;4997534;28;20419;-70
2021/10/28 21:27:48;;;;;;;11.98;7.20;;;12.60;81.50;;;;;;4996684;28;20092;-70
2021/10/28 21:30:15;;;;;;;12.25;7.80;;;12.60;81.20;;;;;;4995393;28;20034;-72
2021/10/28 21:32:41;;;;;;;14.00;7.88;;;12.60;81.10;;;;;;4997610;28;20034;-71
2021/10/28 21:35:10;;;;;;;13.52;8.98;;;12.60;81.20;;;;;;5016556;28;20038;-73
2021/10/28 21:37:36;;;;;;;12.23;7.55;;;12.50;81.30;;;;;;5006179;28;20026;-70